バンクーバー の空港の天気 - METARとTAF

バンクーバー国際空港 ( CYVR / YVR ) - カナダ ブリティッシュコロンビア州バンクーバー
飛行場実況気象(Metar)
観測時間05/28 15:00 PDT (05/28 22:00 UTC)
風向・風速西北西 5m/s
視程10km以上
天気現象
少しの雲 雲底高度 1220m
少しの雲 雲底高度 1370m
全天の4割程度の雲 雲底高度 5490m
全天の8割程度の雲 雲底高度 7320m
気温15℃
湿度67%
気圧1008hPa
METARCYVR 282200Z 29010KT 30SM FEW040 FEW045 SCT180 BKN240 15/09 A2976 RMK CU1SC1AS3CS4 CU TR SC TR SLP080 DENSITY ALT 200FT
過去の天気等 Google飛行場航空写真 Wunderground天気予報

過去48時間のMETAR

飛行場予報(TAF)
発表時間: 5/28 13:40 PDT (5/28 20:40 UTC)
予報対象時間: 28日14時 PDT ~ 29日17時 PDT
風向・風速西 6m/s
視程10km以上
少しの雲 雲底高度 1520m
全天の4割程度の雲 雲底高度 3050m
全天を覆う雲 雲底高度 4570m
28日23時 PDT から
風向・風速西 5m/s
視程10km以上
全天の4割程度の雲 雲底高度 1830m
全天の8割程度の雲 雲底高度 4270m
28日23時 PDT ~ 29日7時 PDT に一時的に
視程10km以上
天気現象弱いしゅう雨
少しの雲 雲底高度 910m
全天の8割程度の雲 雲底高度 1830m
全天の8割程度の雲 雲底高度 3050m
28日23時 PDT ~ 29日1時 PDT に徐々に
風向・風速不定 2m/s
29日7時 PDT から
風向・風速西 4m/s
視程10km以上
全天の4割程度の雲 雲底高度 460m
全天を覆う雲 雲底高度 1220m
29日7時 PDT ~ 29日13時 PDT に一時的に
視程10km以上
天気現象弱いしゅう雨
全天の8割程度の雲 雲底高度 460m
全天を覆う雲 雲底高度 1220m
29日13時 PDT から
風向・風速西南西 4m/s
視程10km以上
少しの雲 雲底高度 610m
全天の8割程度の雲 雲底高度 1520m
TAF CYVR 282040Z 2821/2924 28012KT P6SM FEW050 SCT100 OVC150
FM290600 28010KT P6SM SCT060 BKN140
TEMPO 2906/2914 P6SM -SHRA FEW030 BKN060 BKN100
BECMG 2906/2908 VRB03KT
FM291400 28008KT P6SM SCT015 OVC040
TEMPO 2914/2920 P6SM -SHRA BKN015 OVC040
FM292000 24008KT P6SM FEW020 BKN050 RMK NXT FCST BY 290000Z